Mar Maria — 9HA2859 — position and weather

sailwx.info

Track history (hours):
 
Tides and Currents Weather Stations Pressure Air Temp Water Temp Dewpoint Dewpoint Depression Visibility Wind Speed Wind Dir Waves Ship Positions

Mar Maria

Last reported at 2014-Dec-17 21:30 UTC. Time now 2014-Dec-17 21:38 UTC.
Position N 51°19' E 004°19'.

Length 103 m; draft 5.8 m.

Type: Tanker. MMSI: 256435000.

Date/timePositionNaut miles runAvg speedWind from/ knotsBaromVisibWave heightAir tempDewpointWater temp
2014-Dec-17 21:30N 51°19' E 004°19'0 0.0
2014-Dec-17 20:30N 51°19' E 004°19'0 0.0
2014-Dec-17 19:15N 51°19' E 004°19'0 0.0
2014-Dec-17 18:21N 51°19' E 004°19'0 0.0
2014-Dec-17 17:33N 51°19' E 004°19'2 1.5
2014-Dec-17 16:34N 51°20' E 004°18'1 0.6
2014-Dec-17 15:34N 51°21' E 004°17'4 4.5
2014-Dec-17 14:34N 51°24' E 004°12'7 7.4
2014-Dec-17 13:33N 51°26' E 004°01'9 9.3
2014-Dec-17 12:34N 51°21' E 003°48'10 9.9
2014-Dec-17 11:34N 51°26' E 003°34'1110.9
2014-Dec-17 10:33N 51°24' E 003°17'1211.6
2014-Dec-17 09:33N 51°23' E 002°58'1110.7
2014-Dec-17 08:33N 51°22' E 002°41'2 2.0
2014-Dec-17 07:33N 51°23' E 002°38'2 2.0
2014-Dec-17 06:32N 51°22' E 002°35'10 9.9
2014-Dec-17 05:32N 51°19' E 002°20'1111.4
2014-Dec-17 04:33N 51°13' E 002°05'1110.8
2014-Dec-17 03:34N 51°08' E 001°50'1010.3
2014-Dec-17 02:34N 51°01' E 001°37'  
2014-Dec-10 01:28N 39°17' W 009°52'9 9.5
2014-Dec-10 00:31N 39°08' W 009°51'9 9.3
2014-Dec-09 23:33N 38°59' W 009°52'9 9.1
2014-Dec-09 22:33N 38°50' W 009°51'9 8.8
2014-Dec-09 21:33N 38°41' W 009°51'9 8.8
2014-Dec-09 20:33N 38°32' W 009°52'9 9.0
2014-Dec-09 19:33N 38°23' W 009°53'43 8.5
2014-Dec-09 14:26N 37°40' W 009°57'8 8.9
2014-Dec-09 13:29N 37°32' W 009°57'8 8.7
2014-Dec-09 12:33N 37°24' W 009°57'9 8.7
2014-Dec-09 11:31N 37°15' W 009°58'  
Track history (hours):
 
Tides and Currents Weather Stations Pressure Air Temp Water Temp Dewpoint Dewpoint Depression Visibility Wind Speed Wind Dir Waves Ship Positions

Mar Maria

Last reported at 2014-Dec-17 21:30 UTC. Time now 2014-Dec-17 21:38 UTC.
Position N 51°19' E 004°19'.

Length 103 m; draft 5.8 m.

Type: Tanker. MMSI: 256435000.

Date/timePositionNaut miles runAvg speedWind from/ knotsBaromVisibWave heightAir tempDewpointWater temp
2014-Dec-17 21:30N 51°19' E 004°19'0 0.0
2014-Dec-17 20:30N 51°19' E 004°19'0 0.0
2014-Dec-17 19:15N 51°19' E 004°19'0 0.0
2014-Dec-17 18:21N 51°19' E 004°19'0 0.0
2014-Dec-17 17:33N 51°19' E 004°19'2 1.5
2014-Dec-17 16:34N 51°20' E 004°18'1 0.6
2014-Dec-17 15:34N 51°21' E 004°17'4 4.5
2014-Dec-17 14:34N 51°24' E 004°12'7 7.4
2014-Dec-17 13:33N 51°26' E 004°01'9 9.3
2014-Dec-17 12:34N 51°21' E 003°48'10 9.9
2014-Dec-17 11:34N 51°26' E 003°34'1110.9
2014-Dec-17 10:33N 51°24' E 003°17'1211.6
2014-Dec-17 09:33N 51°23' E 002°58'1110.7
2014-Dec-17 08:33N 51°22' E 002°41'2 2.0
2014-Dec-17 07:33N 51°23' E 002°38'2 2.0
2014-Dec-17 06:32N 51°22' E 002°35'10 9.9
2014-Dec-17 05:32N 51°19' E 002°20'1111.4
2014-Dec-17 04:33N 51°13' E 002°05'1110.8
2014-Dec-17 03:34N 51°08' E 001°50'1010.3
2014-Dec-17 02:34N 51°01' E 001°37'  
2014-Dec-10 01:28N 39°17' W 009°52'9 9.5
2014-Dec-10 00:31N 39°08' W 009°51'9 9.3
2014-Dec-09 23:33N 38°59' W 009°52'9 9.1
2014-Dec-09 22:33N 38°50' W 009°51'9 8.8
2014-Dec-09 21:33N 38°41' W 009°51'9 8.8
2014-Dec-09 20:33N 38°32' W 009°52'9 9.0
2014-Dec-09 19:33N 38°23' W 009°53'43 8.5
2014-Dec-09 14:26N 37°40' W 009°57'8 8.9
2014-Dec-09 13:29N 37°32' W 009°57'8 8.7
2014-Dec-09 12:33N 37°24' W 009°57'9 8.7
2014-Dec-09 11:31N 37°15' W 009°58'  

Dump ship's entire track history